Pagrindinis puslapis
METAR-TAF:

METAR-TAF

Oro uostai :

Skaka, Saudo Arabija

platuma: 29-47N, ilguma: 040-06E, Aukštis: 689 m

Dabartinis oras

Ataskaita buvo paskelbta 1 valandą ir 19 minutes, ne 23:00 UTC
Vėjas 8 kt iš Vakarų/Šiaurės Vakarų
Temperatūra 24°C
Drėgmė 38%
Slėgis 1014 hPa
Matomumas 10 km arba daugiau
nėra debesų žemiau 1500 m ir nėra kamuolinių lietaus debesų

METAR: OESK 232300Z 30008KT CAVOK 24/09 Q1014

Laikas: 03:19 (00:19 UTC)

Prognozė

Ataskaita buvo paskelbta 1 valandą ir 19 minutes, ne 23:00 UTC
Prognozė galioja nuo 24 metu 00 UTC su 25 metu 06 UTC
Vėjas 3 kt nuo kintamojo kryptimis
Matomumas 10 km arba daugiau
nėra debesų žemiau 1500 m ir nėra kamuolinių lietaus debesų
Tapsmas
nuo 24 metu 06 UTC su 24 metu 08 UTC
Vėjas 15 kt iš Vakarų
Laikinai
nuo 24 metu 09 UTC su 24 metu 13 UTC
Matomumas: 4000 m
Dulkes pustymas
Tapsmas
nuo 24 metu 18 UTC su 24 metu 20 UTC
Vėjas 6 kt iš Šiaurės/Šiaurės Rytų

TAF: OESK 232300Z 2400/2506 VRB03KT CAVOK BECMG 2406/2408 27015KT TEMPO 2409/2413 4000 BLDU BECMG 2418/2420 02006KT

Orai ataskaitas ir orų prognozės (METAR, TAF).

turimą stotys yra geltonos ir raudonos taškus žemėlapyje.

Perkelti pele per norėdami pamatyti stoties vardą.

Tada spustelėkite, norėdami matyti oro stebėjimo ir prognozės.

Norėdami pakeisti žemėlapį: spustelėkite ant žalios mygtukų su juodo kryžiaus žemyn,; žalią mygtuką su brūkšneliu, jei norite nutolinti; arba žalių rodyklių gretimoms žemėlapius.


METAR-TAF: